Data for 11/16/2009

Time Sea-Level Adjusted Pressure Absolute Pressure Temperature Relative Humidity Dew Point   
(mb) (inHg) (mb) (inHg) (C) (F) (%) (C) (F)
00:05 1024 30.24 853 25.19 -5.3 22.5 80 -8.3 17.1
00:10 1024 30.24 853 25.19 -5 22.9 80 -8 17.5
00:15 1024 30.24 853 25.19 -4.9 23.1 78 -8.2 17.3
00:20 1024 30.24 853 25.19 -4.9 23.1 78 -8.1 17.4
00:25 1024 30.24 853 25.19 -5.1 22.8 78 -8.3 17
00:30 1024 30.24 853 25.19 -5.2 22.7 79 -8.2 17.2
00:35 1024 30.24 853 25.19 -5.2 22.7 79 -8.2 17.2
00:40 1024 30.24 853 25.19 -5 23 79 -8.1 17.4
00:45 1024 30.24 853 25.19 -4.9 23.2 79 -8.1 17.5
00:50 1024 30.24 853 25.19 -5 22.9 80 -8 17.7
00:55 1024 30.24 853 25.19 -5.1 22.8 79 -8.2 17.3
01:00 1024 30.24 853 25.19 -5.1 22.8 79 -8.2 17.2
01:05 1024 30.24 853 25.19 -5.2 22.7 79 -8.3 17.1
01:10 1024 30.24 853 25.19 -5.3 22.5 79 -8.3 17
01:15 1024 30.24 853 25.19 -5.6 22 83 -8 17.6
01:20 1024 30.24 853 25.19 -5.9 21.4 84 -8.2 17.3
01:25 1024 30.24 853 25.19 -6.1 21.1 84 -8.3 17.1
01:30 1024 30.24 853 25.19 -6.2 20.8 85 -8.3 17
01:35 1024 30.24 853 25.19 -6.3 20.6 86 -8.4 17
01:40 1024 30.24 853 25.19 -6.6 20.1 86 -8.5 16.7
01:45 1024 30.24 853 25.19 -6.9 19.7 87 -8.7 16.4
01:50 1024 30.24 853 25.19 -6.7 20 87 -8.5 16.7
01:55 1024 30.24 853 25.19 -6 21.1 83 -8.5 16.7
02:00 1024 30.24 853 25.19 -6.3 20.7 84 -8.6 16.5
02:05 1024 30.24 853 25.19 -6.1 21 85 -8.2 17.3
02:10 1024 30.24 853 25.19 -5.6 21.9 81 -8.4 16.9
02:15 1024 30.24 853 25.19 -5.9 21.4 83 -8.3 17.1
02:20 1024 30.24 853 25.19 -5.8 21.6 81 -8.6 16.5
02:25 1024 30.24 853 25.19 -6.1 21 84 -8.5 16.8
02:30 1024 30.24 853 25.19 -6.2 20.9 83 -8.5 16.7
02:35 1024 30.24 853 25.19 -5.8 21.5 82 -8.4 16.8
02:40 1024 30.24 853 25.19 -5.4 22.2 81 -8.2 17.3
02:45 1024 30.24 853 25.19 -4.8 23.4 79 -7.9 17.7
02:50 1024 30.24 853 25.19 -4.4 24 78 -7.8 18
02:55 1024 30.24 853 25.19 -5 23 80 -7.9 17.7
03:00 1023 30.21 853 25.19 -5.4 22.3 81 -8.2 17.3
03:05 1023 30.21 853 25.19 -5.7 21.8 82 -8.3 17
03:10 1023 30.21 853 25.19 -5.9 21.3 84 -8.2 17.2
03:15 1023 30.21 852 25.16 -5.2 22.7 81 -7.9 17.7
03:20 1023 30.21 852 25.16 -5.3 22.4 82 -8 17.6
03:25 1023 30.21 852 25.16 -4.8 23.3 80 -7.8 18
03:30 1023 30.21 852 25.16 -4.1 24.6 78 -7.4 18.6
03:35 1023 30.21 852 25.16 -3.9 24.9 75 -7.7 18.2
03:40 1023 30.21 852 25.16 -3.9 25 76 -7.5 18.5
03:45 1023 30.21 852 25.16 -4.1 24.7 76 -7.7 18.2
03:50 1023 30.21 852 25.16 -4.3 24.3 78 -7.6 18.4
03:55 1023 30.21 852 25.16 -3.9 25 75 -7.7 18.2
04:00 1023 30.21 852 25.16 -3.2 26.3 73 -7.4 18.7
04:05 1023 30.21 852 25.16 -3.2 26.3 74 -7.1 19.2
04:10 1023 30.21 852 25.16 -3.3 26.1 74 -7.3 18.8
04:15 1023 30.21 852 25.16 -3.6 25.6 75 -7.4 18.8
04:20 1023 30.21 852 25.16 -3.9 25.1 77 -7.3 18.8
04:25 1023 30.21 852 25.16 -4.2 24.5 78 -7.5 18.6
04:30 1023 30.21 852 25.16 -4.8 23.4 81 -7.6 18.4
04:35 1023 30.21 852 25.16 -5.3 22.4 82 -7.9 17.7
04:40 1023 30.21 852 25.16 -5.2 22.6 81 -8 17.6
04:45 1023 30.21 852 25.16 -5.7 21.7 86 -7.7 18.1
04:50 1023 30.21 852 25.16 -5.9 21.5 85 -8 17.6
04:55 1023 30.21 852 25.16 -5.8 21.6 87 -7.6 18.2
05:00 1022 30.18 852 25.16 -5.5 22.2 85 -7.6 18.3
05:05 1022 30.18 852 25.16 -5 23 81 -7.7 18.2
05:10 1023 30.21 852 25.16 -5 23.1 82 -7.6 18.2
05:15 1023 30.21 852 25.16 -5 23 83 -7.5 18.6
05:20 1023 30.21 852 25.16 -5.1 22.9 81 -7.8 18
05:25 1023 30.21 852 25.16 -5.2 22.7 81 -8 17.7
05:30 1023 30.21 852 25.16 -5.8 21.5 81 -8.5 16.6
05:35 1023 30.21 852 25.16 -5.9 21.4 83 -8.4 17
05:40 1023 30.21 852 25.16 -5.7 21.7 80 -8.6 16.6
05:45 1023 30.21 852 25.16 -5.4 22.3 81 -8.2 17.2
05:50 1023 30.21 852 25.16 -5.8 21.6 83 -8.2 17.2
05:55 1023 30.21 852 25.16 -5.9 21.3 84 -8.2 17.2
06:00 1023 30.21 852 25.16 -5.9 21.4 84 -8.2 17.3
06:05 1023 30.21 852 25.16 -6.5 20.4 85 -8.5 16.7
06:10 1023 30.21 852 25.16 -6.6 20.1 86 -8.5 16.7
06:15 1023 30.21 852 25.16 -6.6 20.1 85 -8.7 16.4
06:20 1023 30.21 852 25.16 -6.8 19.8 85 -8.8 16.1
06:25 1023 30.21 852 25.16 -6.9 19.5 86 -9 15.9
06:30 1023 30.21 852 25.16 -7.1 19.2 87 -9 15.9
06:35 1023 30.21 852 25.16 -7.3 18.9 87 -9.1 15.6
06:40 1023 30.21 852 25.16 -7.4 18.6 85 -9.6 14.8
06:45 1023 30.21 852 25.16 -7.4 18.7 84 -9.6 14.7
06:50 1023 30.21 852 25.16 -7.4 18.7 83 -9.8 14.4
06:55 1023 30.21 852 25.16 -7.4 18.8 86 -9.4 15.1
07:00 1023 30.21 852 25.16 -7.5 18.6 88 -9.1 15.5
07:05 1023 30.21 852 25.16 -7.5 18.6 89 -9 15.9
07:10 1023 30.21 852 25.16 -7 19.4 87 -8.8 16.1
07:15 1023 30.21 852 25.16 -7 19.4 87 -8.8 16.2
07:20 1023 30.21 852 25.16 -6.8 19.7 87 -8.7 16.4
07:25 1023 30.21 852 25.16 -7 19.4 87 -8.7 16.3
07:30 1023 30.21 852 25.16 -7.2 19.1 88 -8.9 16
07:35 1023 30.21 852 25.16 -7.1 19.1 89 -8.7 16.3
07:40 1023 30.21 852 25.16 -6.6 20.2 84 -8.9 16.1
07:45 1023 30.21 852 25.16 -6.4 20.5 84 -8.7 16.3
07:50 1023 30.21 852 25.16 -6.1 21 82 -8.6 16.4
07:55 1023 30.21 852 25.16 -5.9 21.4 80 -8.7 16.3
08:00 1023 30.21 852 25.16 -5.8 21.6 79 -8.9 16
08:05 1023 30.21 852 25.16 -5.8 21.5 83 -8.3 17.1
08:10 1023 30.21 852 25.16 -5.5 22.1 84 -7.9 17.9
08:15 1023 30.21 852 25.16 -4.9 23.2 83 -7.3 18.9
08:20 1023 30.21 852 25.16 -4.2 24.4 77 -7.6 18.3
08:25 1023 30.21 852 25.16 -4.5 23.9 81 -7.3 18.9
08:30 1023 30.21 852 25.16 -4.8 23.4 76 -8.4 16.9
08:35 1023 30.21 852 25.16 -4.7 23.6 75 -8.5 16.8
08:40 1023 30.21 852 25.16 -5.7 21.8 80 -8.6 16.5
08:45 1023 30.21 852 25.16 -5.7 21.8 79 -8.7 16.3
08:50 1023 30.21 852 25.16 -4.7 23.5 76 -8.3 17
08:55 1023 30.21 852 25.16 -4.7 23.5 76 -8.3 17.1
09:00 1023 30.21 852 25.16 -4.2 24.5 76 -7.9 17.8
09:05 1023 30.21 852 25.16 -4.3 24.3 76 -7.8 18
09:10 1023 30.21 852 25.16 -3.8 25.1 75 -7.6 18.4
09:15 1023 30.21 852 25.16 -3.5 25.7 74 -7.6 18.4
09:20 1023 30.21 852 25.16 -3.4 25.9 74 -7.4 18.6
09:25 1023 30.21 852 25.16 -2.9 26.8 69 -7.7 18.1
09:30 1023 30.21 852 25.16 -1.5 29.3 65 -7.3 18.8
09:35 1023 30.21 852 25.16 -0.6 30.9 61 -7.2 19
09:40 1023 30.21 852 25.16 -0.6 31 61 -7.1 19.2
09:45 1023 30.21 852 25.16 -0.6 30.9 59 -7.6 18.3
09:50 1023 30.21 852 25.16 -0.2 31.6 60 -7.1 19.1
09:55 1023 30.21 852 25.16 -0.9 30.5 62 -7.3 18.9
10:00 1023 30.21 852 25.16 -0.8 30.6 60 -7.6 18.4
10:05 1023 30.21 852 25.16 -0.2 31.6 58 -7.6 18.4
10:10 1023 30.21 852 25.16 0.3 32.5 55 -7.8 18
10:15 1023 30.21 852 25.16 0.1 32.2 58 -7.2 19
10:20 1023 30.21 852 25.16 -0.2 31.7 58 -7.5 18.4
10:25 1023 30.21 852 25.16 -0.2 31.7 59 -7.3 18.8
10:30 1023 30.21 852 25.16 0.1 32.1 58 -7.3 18.9
10:35 1023 30.21 852 25.16 0.9 33.7 58 -6.5 20.3
10:40 1023 30.21 852 25.16 1.6 34.8 56 -6.3 20.6
10:45 1023 30.21 852 25.16 1.7 35 57 -6 21.1
10:50 1023 30.21 852 25.16 1.5 34.7 56 -6.4 20.5
10:55 1023 30.21 852 25.16 1.5 34.6 56 -6.5 20.3
11:00 1023 30.21 852 25.16 1.7 35 58 -5.8 21.5
11:05 1023 30.21 852 25.16 1.2 34.1 58 -6.1 20.9
11:10 1023 30.21 852 25.16 1 33.9 60 -5.9 21.4
11:15 1023 30.21 852 25.16 1 33.8 59 -6.1 21
11:20 1023 30.21 852 25.16 1.1 33.9 60 -5.8 21.5
11:25 1023 30.21 852 25.16 0.2 32.3 64 -5.9 21.3
11:30 1023 30.21 852 25.16 -0 32 62 -6.5 20.4
11:35 1022 30.18 852 25.16 0.2 32.3 62 -6.2 20.8
11:40 1022 30.18 852 25.16 0.5 32.9 61 -6.1 21.1
11:45 1022 30.18 851 25.13 1.4 34.6 58 -5.9 21.5
11:50 1022 30.18 852 25.16 1.6 34.9 59 -5.6 21.9
11:55 1022 30.18 851 25.13 1.3 34.4 60 -5.7 21.7
12:00 1022 30.18 851 25.13 0.8 33.4 62 -5.7 21.7
12:05 1022 30.18 851 25.13 1.5 34.6 57 -6.2 20.9
12:10 1022 30.18 851 25.13 1.9 35.4 56 -5.9 21.3
12:15 1022 30.18 851 25.13 2.6 36.6 56 -5.4 22.3
12:20 1022 30.18 851 25.13 2.4 36.4 56 -5.4 22.2
12:25 1022 30.18 851 25.13 2.7 36.9 55 -5.4 22.3
12:30 1022 30.18 851 25.13 3.1 37.5 55 -5.2 22.7
12:35 1022 30.18 851 25.13 4 39.2 53 -4.8 23.4
12:40 1022 30.18 851 25.13 4.2 39.5 52 -4.9 23.2
12:45 1022 30.18 851 25.13 4.9 40.9 50 -4.7 23.5
12:50 1022 30.18 851 25.13 4.2 39.6 52 -4.6 23.7
12:55 1022 30.18 851 25.13 4.6 40.3 49 -5.1 22.8
13:00 1022 30.18 851 25.13 4 39.2 54 -4.6 23.8
13:05 1022 30.18 851 25.13 2.3 36.2 58 -5 22.9
13:10 1022 30.18 851 25.13 2.5 36.5 58 -4.8 23.3
13:15 1021 30.15 851 25.13 1.8 35.2 58 -5.6 21.9
13:20 1021 30.15 851 25.13 2.2 36 56 -5.6 21.9
13:25 1021 30.15 851 25.13 3.5 38.4 48 -6.4 20.6
13:30 1021 30.15 851 25.13 2.4 36.4 56 -5.4 22.3
13:35 1021 30.15 851 25.13 2.8 37 51 -6.5 20.3
13:40 1021 30.15 851 25.13 3.8 38.8 48 -6.2 20.9
13:45 1021 30.15 850 25.1 2.8 37.1 52 -6.2 20.9
13:50 1021 30.15 850 25.1 1.9 35.4 55 -6.3 20.6
13:55 1021 30.15 850 25.1 1.9 35.3 57 -5.8 21.5
14:00 1021 30.15 850 25.1 2.6 36.7 54 -5.8 21.6
14:05 1021 30.15 850 25.1 2.5 36.4 53 -6.1 21.1
14:10 1021 30.15 850 25.1 2.6 36.8 57 -5 23
14:15 1021 30.15 850 25.1 1.8 35.3 60 -5.2 22.6
14:20 1021 30.15 850 25.1 2.6 36.7 54 -5.7 21.7
14:25 1021 30.15 850 25.1 2.9 37.2 54 -5.4 22.3
14:30 1021 30.15 850 25.1 3.6 38.4 53 -5.2 22.7
14:35 1021 30.15 850 25.1 3.6 38.5 53 -5 22.9
14:40 1021 30.15 850 25.1 3.6 38.6 53 -5 23.1
14:45 1021 30.15 850 25.1 3.2 37.7 54 -5.4 22.4
14:50 1021 30.15 850 25.1 2.8 37 54 -5.5 22
14:55 1021 30.15 850 25.1 2.9 37.2 54 -5.6 21.9
15:00 1021 30.15 850 25.1 2.5 36.4 57 -5.2 22.6
15:05 1021 30.15 850 25.1 2.9 37.2 53 -5.7 21.8
15:10 1021 30.15 850 25.1 3.2 37.7 54 -5.3 22.4
15:15 1021 30.15 850 25.1 3 37.4 54 -5.3 22.4
15:20 1021 30.15 850 25.1 2.4 36.3 56 -5.6 21.9
15:25 1021 30.15 850 25.1 2.3 36.2 55 -5.9 21.4
15:30 1021 30.15 850 25.1 2.5 36.6 54 -5.9 21.5
15:35 1021 30.15 850 25.1 2.9 37.2 53 -5.6 21.9
15:40 1021 30.15 850 25.1 2.5 36.5 56 -5.3 22.4
15:45 1021 30.15 850 25.1 1.8 35.3 59 -5.2 22.6
15:50 1021 30.15 850 25.1 1 33.9 62 -5.4 22.3
15:55 1021 30.15 850 25.1 0.7 33.3 63 -5.6 21.9
16:00 1021 30.15 850 25.1 0.5 32.9 62 -5.8 21.5
16:05 1021 30.15 850 25.1 0.3 32.5 64 -5.8 21.6
16:10 1021 30.15 850 25.1 0.7 33.3 60 -6.1 21.1
16:15 1021 30.15 850 25.1 1.1 33.9 59 -6 21.1
16:20 1021 30.15 850 25.1 0.8 33.4 60 -6.2 20.8
16:25 1021 30.15 850 25.1 0.4 32.7 61 -6.3 20.7
16:30 1021 30.15 850 25.1 0.5 32.9 61 -6.2 20.9
16:35 1021 30.15 850 25.1 0.2 32.3 63 -6.1 21
16:40 1020 30.12 850 25.1 -0 32 62 -6.3 20.6
16:45 1020 30.12 850 25.1 -0.4 31.3 62 -6.8 19.7
16:50 1021 30.15 850 25.1 -0.9 30.5 65 -6.7 20
16:55 1021 30.15 850 25.1 -0.5 31 63 -6.8 19.7
17:00 1021 30.15 850 25.1 -0.6 30.9 70 -5.5 22.2
17:05 1021 30.15 850 25.1 -1.1 30 72 -5.5 22.1
17:10 1021 30.15 850 25.1 -1.4 29.6 72 -5.8 21.6
17:15 1021 30.15 850 25.1 -1.3 29.7 74 -5.3 22.4
17:20 1021 30.15 850 25.1 -1 30.2 73 -5.2 22.7
17:25 1021 30.15 850 25.1 -0.9 30.4 74 -4.9 23.1
17:30 1020 30.12 850 25.1 -1 30.1 75 -4.8 23.3
17:35 1020 30.12 850 25.1 -1.1 30.1 74 -5.1 22.9
17:40 1021 30.15 850 25.1 -0.9 30.4 74 -5 23
17:45 1020 30.12 850 25.1 -1.2 29.9 76 -4.9 23.1
17:50 1021 30.15 850 25.1 -1.6 29.2 77 -5 23
17:55 1021 30.15 850 25.1 -1.5 29.3 78 -4.9 23.3
18:00 1021 30.15 850 25.1 -1.2 29.8 80 -4.2 24.5
18:05 1021 30.15 850 25.1 -1.1 30.1 80 -4 24.8
18:10 1020 30.12 850 25.1 -1.2 29.8 82 -4 24.8
18:15 1020 30.12 850 25.1 -1.4 29.5 80 -4.4 24.1
18:20 1020 30.12 850 25.1 -1.4 29.5 81 -4.3 24.3
18:25 1020 30.12 850 25.1 -1.6 29.1 83 -4.2 24.5
18:30 1020 30.12 850 25.1 -1.6 29.1 84 -4 24.9
18:35 1020 30.12 850 25.1 -1.7 28.9 83 -4.3 24.3
18:40 1020 30.12 850 25.1 -1.7 28.9 83 -4.3 24.3
18:45 1020 30.12 849 25.07 -1.4 29.4 84 -3.7 25.3
18:50 1020 30.12 849 25.07 -1.2 29.9 82 -3.9 24.9
18:55 1020 30.12 849 25.07 -1.5 29.3 88 -3.2 26.2
19:00 1020 30.12 849 25.07 -1.9 28.7 96 -2.4 27.7
19:05 1020 30.12 849 25.07 -0.9 30.3 95 -1.6 29.1
19:10 1020 30.12 849 25.07 0.2 32.4 81 -2.7 27.1
19:15 1020 30.12 849 25.07 1.2 34.2 87 -0.7 30.7
19:20 1020 30.12 849 25.07 0.7 33.3 89 -0.9 30.3
19:25 1020 30.12 849 25.07 0.7 33.2 84 -1.7 28.9
19:30 1020 30.12 849 25.07 0.7 33.2 83 -1.8 28.7
19:35 1020 30.12 849 25.07 1 33.8 83 -1.5 29.3
19:40 1020 30.12 849 25.07 0.9 33.6 78 -2.5 27.5
19:45 1020 30.12 849 25.07 1.7 35.1 72 -2.7 27.1
19:50 1020 30.12 849 25.07 1.4 34.6 76 -2.3 27.8
19:55 1020 30.12 849 25.07 0.6 33.1 75 -3.2 26.2
20:00 1020 30.12 849 25.07 0.9 33.6 77 -2.7 27.1
20:05 1020 30.12 849 25.07 1.1 33.9 76 -2.7 27.1
20:10 1020 30.12 849 25.07 0.5 32.9 75 -3.5 25.7
20:15 1020 30.12 849 25.07 0.4 32.8 73 -3.8 25.2
20:20 1020 30.12 849 25.07 -0.2 31.6 78 -3.6 25.4
20:25 1020 30.12 849 25.07 -0.4 31.3 81 -3.2 26.2
20:30 1020 30.12 849 25.07 0.1 32.1 75 -3.8 25.2
20:35 1020 30.12 849 25.07 0.5 32.9 67 -5 23.1
20:40 1020 30.12 849 25.07 0.9 33.7 69 -4.2 24.4
20:45 1020 30.12 849 25.07 0.8 33.4 66 -4.9 23.2
20:50 1020 30.12 849 25.07 1.4 34.5 63 -4.9 23.2
20:55 1020 30.12 849 25.07 1.5 34.7 71 -3.1 26.4
21:00 1020 30.12 849 25.07 0.5 32.9 77 -3.1 26.5
21:05 1020 30.12 849 25.07 0.5 32.9 74 -3.6 25.5
21:10 1020 30.12 849 25.07 1.4 34.4 67 -4.2 24.5
21:15 1020 30.12 849 25.07 1.7 35 65 -4.3 24.3
21:20 1020 30.12 849 25.07 1.3 34.3 66 -4.4 24.1
21:25 1020 30.12 849 25.07 1.1 34 64 -5 23.1
21:30 1020 30.12 849 25.07 1.2 34.1 64 -4.9 23.2
21:35 1020 30.12 849 25.07 1.2 34.1 64 -5 23
21:40 1020 30.12 849 25.07 0.8 33.5 66 -4.8 23.4
21:45 1020 30.12 849 25.07 0.3 32.5 67 -5.3 22.5
21:50 1020 30.12 849 25.07 0.4 32.6 65 -5.4 22.3
21:55 1020 30.12 849 25.07 0.7 33.3 64 -5.2 22.6
22:00 1020 30.12 849 25.07 0.5 33 68 -4.7 23.5
22:05 1020 30.12 849 25.07 -0 32 71 -4.6 23.7
22:10 1020 30.12 849 25.07 -1.2 29.8 74 -5.3 22.4
22:15 1020 30.12 849 25.07 -0.2 31.6 73 -4.5 24
22:20 1020 30.12 849 25.07 0.5 32.8 66 -5.1 22.9
22:25 1020 30.12 849 25.07 0.3 32.5 69 -4.8 23.3
22:30 1020 30.12 849 25.07 0.2 32.4 66 -5.4 22.3
22:35 1020 30.12 849 25.07 0.8 33.4 63 -5.5 22.1
22:40 1020 30.12 849 25.07 0.6 33.1 64 -5.5 22.1
22:45 1020 30.12 849 25.07 0.4 32.6 67 -5.1 22.8
22:50 1020 30.12 849 25.07 0.4 32.7 64 -5.6 22
22:55 1020 30.12 849 25.07 1 33.8 63 -5.3 22.4
23:00 1020 30.12 849 25.07 0.7 33.3 63 -5.5 22
23:05 1020 30.12 849 25.07 0.2 32.3 64 -5.8 21.6
23:10 1020 30.12 849 25.07 0 32.1 64 -6 21.1
23:15 1020 30.12 849 25.07 0.1 32.1 63 -6.1 21
23:20 1020 30.12 849 25.07 -0.1 31.8 65 -5.9 21.5
23:25 1020 30.12 849 25.07 -0.1 31.9 64 -6 21.1
23:30 1020 30.12 849 25.07 0.1 32.1 68 -5.2 22.7
23:35 1020 30.12 849 25.07 0.3 32.5 68 -5 23
23:40 1020 30.12 849 25.07 0.6 33.1 66 -4.9 23.2
23:45 1020 30.12 849 25.07 0.7 33.2 62 -5.8 21.6
23:50 1020 30.12 849 25.07 0.5 32.9 61 -6.1 21
23:55 1020 30.12 849 25.07 0.7 33.2 59 -6.5 20.4
24:00 1020 30.12 849 25.07 0.8 33.4 62 -5.7 21.7